Time;durP1;ratioP1;P1;durP2;ratioP2;P2;SDS_P1;SDS_P2;PMS_P1;PMS_P2;Temp;Humidity;BMP_temperature;BMP_pressure;BME280_temperature;BME280_humidity;BME280_pressure;Samples;Min_cycle;Max_cycle;Signal;HPM_P1;HPM_P2
2022/05/10 00:00:56;;;;;;;16.65;8.13;;;14.80;99.90;;;;;;5028023;28;20073;-80
2022/05/10 00:03:28;;;;;;;19.25;8.70;;;14.80;99.90;;;;;;5041989;28;20120;-79
2022/05/10 00:05:53;;;;;;;22.20;8.65;;;14.80;99.90;;;;;;5047555;28;20037;-79
2022/05/10 00:08:19;;;;;;;21.52;8.73;;;14.90;99.90;;;;;;5048042;28;20053;-80
2022/05/10 00:10:46;;;;;;;18.05;8.32;;;14.90;99.90;;;;;;5037268;28;20034;-79
2022/05/10 00:13:13;;;;;;;23.42;8.77;;;14.90;99.90;;;;;;5045089;28;20025;-80
2022/05/10 00:15:40;;;;;;;16.17;7.72;;;14.90;99.90;;;;;;5041695;28;20036;-80
2022/05/10 00:18:06;;;;;;;19.50;8.35;;;14.90;99.90;;;;;;5043501;28;20009;-79
2022/05/10 00:20:32;;;;;;;21.30;8.32;;;15.00;99.90;;;;;;5050864;28;20049;-79
2022/05/10 00:22:58;;;;;;;20.50;8.57;;;14.90;99.90;;;;;;5032547;28;20044;-79
2022/05/10 00:25:28;;;;;;;19.60;7.97;;;14.90;99.90;;;;;;5044481;28;20029;-80
2022/05/10 00:27:55;;;;;;;17.52;8.30;;;14.90;99.90;;;;;;5032356;28;20124;-79
2022/05/10 00:30:21;;;;;;;15.93;8.15;;;14.90;99.90;;;;;;5051102;28;20032;-79
2022/05/10 00:32:47;;;;;;;24.33;9.57;;;14.90;99.90;;;;;;5051216;28;20052;-80
2022/05/10 00:35:16;;;;;;;16.27;7.97;;;14.80;99.90;;;;;;5047717;28;20033;-80
2022/05/10 00:37:44;;;;;;;19.05;8.70;;;14.90;99.90;;;;;;5029118;28;20064;-80
2022/05/10 00:40:11;;;;;;;19.40;9.38;;;14.90;99.90;;;;;;5032290;28;20009;-79
2022/05/10 00:42:50;;;;;;;22.85;9.60;;;14.90;99.90;;;;;;5050591;28;20108;-79
2022/05/10 00:45:23;;;;;;;18.27;8.57;;;14.90;99.90;;;;;;5050848;28;20030;-79
2022/05/10 00:48:00;;;;;;;22.00;9.20;;;14.90;99.90;;;;;;5050319;28;20037;-79
2022/05/10 00:50:41;;;;;;;24.80;9.23;;;15.00;99.90;;;;;;5051064;28;20025;-79
2022/05/10 00:53:21;;;;;;;17.08;9.02;;;15.00;99.90;;;;;;5033005;28;20115;-79
2022/05/10 00:55:58;;;;;;;20.55;9.13;;;15.00;99.90;;;;;;5030551;28;20113;-79
2022/05/10 00:58:42;;;;;;;17.42;8.98;;;15.00;99.90;;;;;;5029598;28;20097;-79
2022/05/10 01:01:09;;;;;;;22.02;9.75;;;15.00;99.90;;;;;;5025448;28;20398;-79
2022/05/10 01:03:45;;;;;;;21.52;9.50;;;15.00;99.90;;;;;;5037576;28;20489;-79
2022/05/10 01:06:16;;;;;;;19.73;9.57;;;15.10;99.90;;;;;;5025776;28;20091;-79
2022/05/10 01:08:51;;;;;;;17.58;8.95;;;15.10;99.90;;;;;;5021575;28;20042;-79
2022/05/10 01:11:37;;;;;;;20.88;8.45;;;15.10;99.90;;;;;;5035409;28;20037;-79
2022/05/10 01:14:14;;;;;;;;;;;15.10;99.90;;;;;;5038681;28;20037;-79
2022/05/10 01:16:40;;;;;;;19.00;8.65;;;15.10;99.90;;;;;;5036554;28;19909;-79
2022/05/10 01:19:06;;;;;;;23.10;9.63;;;15.10;99.90;;;;;;5041371;28;20382;-78
2022/05/10 01:21:49;;;;;;;17.17;8.93;;;15.10;99.90;;;;;;5038270;28;20056;-79
2022/05/10 01:24:24;;;;;;;22.88;8.77;;;15.20;99.90;;;;;;5020289;28;20064;-79
2022/05/10 01:27:08;;;;;;;17.63;9.13;;;15.20;99.90;;;;;;5036872;28;20029;-79
2022/05/10 01:29:46;;;;;;;18.80;8.45;;;15.20;99.90;;;;;;5034061;28;20276;-79
2022/05/10 01:35:05;;;;;;;17.40;8.82;;;15.30;99.90;;;;;;5022156;28;20380;-79
2022/05/10 01:37:35;;;;;;;21.70;9.35;;;15.20;99.90;;;;;;5047080;28;20076;-79
2022/05/10 01:40:07;;;;;;;21.55;9.27;;;15.20;99.90;;;;;;5035615;28;20021;-79
2022/05/10 01:42:51;;;;;;;19.20;8.55;;;15.30;99.90;;;;;;5035644;28;20037;-79
2022/05/10 01:45:39;;;;;;;20.80;9.55;;;15.30;99.90;;;;;;5039571;28;20029;-80
2022/05/10 01:48:07;;;;;;;21.35;9.05;;;15.30;99.90;;;;;;5036351;28;20170;-79
2022/05/10 01:50:44;;;;;;;17.08;8.77;;;15.30;99.90;;;;;;5029288;28;20030;-79
2022/05/10 01:53:13;;;;;;;20.25;9.43;;;15.30;99.90;;;;;;5026304;28;20033;-79
2022/05/10 01:55:43;;;;;;;27.15;9.80;;;15.30;99.90;;;;;;5012124;28;20029;-79
2022/05/10 01:58:15;;;;;;;24.67;10.10;;;15.30;99.90;;;;;;5021043;28;20066;-79
2022/05/10 02:00:46;;;;;;;20.98;10.10;;;15.30;99.90;;;;;;5031800;28;20488;-79
2022/05/10 02:03:20;;;;;;;22.67;10.60;;;15.30;99.90;;;;;;5016460;28;20026;-79
2022/05/10 02:06:07;;;;;;;21.65;10.05;;;15.40;99.90;;;;;;5023388;28;20030;-78
2022/05/10 02:08:37;;;;;;;20.88;9.77;;;15.40;99.90;;;;;;5031159;28;20053;-79
2022/05/10 02:11:08;;;;;;;19.75;9.82;;;15.40;99.90;;;;;;5043269;28;20014;-79
2022/05/10 02:13:39;;;;;;;22.42;10.18;;;15.40;99.90;;;;;;5038922;28;20037;-80
2022/05/10 02:16:28;;;;;;;26.20;10.40;;;15.40;99.90;;;;;;5028226;28;20037;-79
2022/05/10 02:19:17;;;;;;;21.30;10.38;;;15.50;99.90;;;;;;5035257;28;20033;-79
2022/05/10 02:22:10;;;;;;;24.15;10.95;;;15.50;99.90;;;;;;5028651;28;20407;-79
2022/05/10 02:24:40;;;;;;;25.40;10.52;;;15.60;99.90;;;;;;5014249;28;20064;-80
2022/05/10 02:27:15;;;;;;;22.23;10.93;;;15.60;99.90;;;;;;5012808;28;20034;-80
2022/05/10 02:29:51;;;;;;;21.20;10.77;;;15.60;99.90;;;;;;5026362;28;20056;-80
2022/05/10 02:35:12;;;;;;;24.02;10.57;;;15.70;99.90;;;;;;5017984;28;20092;-80
2022/05/10 02:37:38;;;;;;;25.17;11.02;;;15.70;99.90;;;;;;5023065;28;20044;-80
2022/05/10 02:40:07;;;;;;;18.75;10.38;;;15.70;99.90;;;;;;5030391;28;20033;-80
2022/05/10 02:42:33;;;;;;;17.85;10.15;;;15.80;99.90;;;;;;5031871;28;20103;-80
2022/05/10 02:45:00;;;;;;;23.80;10.45;;;15.80;99.90;;;;;;5033092;28;20033;-80
2022/05/10 02:47:52;;;;;;;23.95;9.75;;;15.80;99.90;;;;;;5028875;28;20117;-80
2022/05/10 02:50:17;;;;;;;20.33;10.48;;;15.80;99.90;;;;;;5027135;28;20073;-80
2022/05/10 02:52:43;;;;;;;20.10;10.52;;;15.80;99.90;;;;;;5028994;28;20064;-80
2022/05/10 02:55:15;;;;;;;20.48;10.32;;;15.80;99.90;;;;;;5013046;28;20421;-80
2022/05/10 02:57:43;;;;;;;21.25;10.40;;;15.80;99.90;;;;;;5016292;28;20462;-80
2022/05/10 03:00:09;;;;;;;22.48;10.82;;;15.90;99.90;;;;;;5020067;28;20470;-80
2022/05/10 03:02:39;;;;;;;21.13;10.57;;;15.90;99.90;;;;;;5034749;28;20028;-80
2022/05/10 03:05:07;;;;;;;21.05;10.52;;;15.90;99.90;;;;;;5036987;28;20037;-80
2022/05/10 03:07:32;;;;;;;21.35;10.52;;;15.90;99.90;;;;;;5036111;28;20045;-80
2022/05/10 03:09:58;;;;;;;19.45;9.45;;;15.90;99.90;;;;;;5027526;28;20036;-79
2022/05/10 03:12:24;;;;;;;21.67;9.77;;;15.90;99.90;;;;;;5031763;28;20032;-80
2022/05/10 03:14:49;;;;;;;21.63;10.10;;;15.90;99.90;;;;;;5035720;28;20025;-79
2022/05/10 03:17:15;;;;;;;22.15;9.45;;;15.90;99.90;;;;;;5032538;28;20064;-80
2022/05/10 03:19:41;;;;;;;20.98;9.93;;;15.90;99.90;;;;;;5032212;28;20032;-80
2022/05/10 03:22:09;;;;;;;23.25;9.93;;;16.00;99.90;;;;;;5033568;28;20088;-79
2022/05/10 03:24:35;;;;;;;21.55;9.50;;;15.90;99.90;;;;;;5022176;28;20021;-80
2022/05/10 03:27:03;;;;;;;17.33;9.52;;;15.90;99.90;;;;;;5013992;28;20077;-79
2022/05/10 03:29:29;;;;;;;22.85;9.48;;;16.00;99.90;;;;;;5016041;28;20088;-79
2022/05/10 03:31:55;;;;;;;18.38;9.57;;;16.00;99.90;;;;;;5026819;28;20033;-79
2022/05/10 03:37:05;;;;;;;22.67;9.95;;;16.00;99.90;;;;;;5034600;28;20448;-79
2022/05/10 03:39:30;;;;;;;19.52;10.65;;;15.90;99.90;;;;;;5025224;28;20026;-80
2022/05/10 03:41:56;;;;;;;17.63;9.98;;;15.90;99.90;;;;;;5014953;28;20057;-79
2022/05/10 03:44:22;;;;;;;23.38;9.98;;;15.90;99.90;;;;;;5016760;28;20036;-79
2022/05/10 03:46:47;;;;;;;19.40;10.25;;;15.90;99.90;;;;;;5032430;28;20101;-79
2022/05/10 03:49:14;;;;;;;20.33;10.68;;;15.90;99.90;;;;;;5018954;28;20472;-79
2022/05/10 03:51:39;;;;;;;18.92;10.23;;;15.90;99.90;;;;;;5020777;28;20091;-79
2022/05/10 03:54:05;;;;;;;19.67;10.68;;;15.90;99.90;;;;;;5014304;28;20022;-79
2022/05/10 03:56:31;;;;;;;19.60;10.30;;;15.80;99.90;;;;;;5013650;28;20114;-79
2022/05/10 03:58:57;;;;;;;18.15;10.15;;;15.80;99.90;;;;;;5013233;28;20431;-79
2022/05/10 04:01:23;;;;;;;22.25;10.50;;;15.80;99.90;;;;;;5014106;28;20026;-79
2022/05/10 04:03:49;;;;;;;23.77;11.35;;;15.80;99.90;;;;;;5011802;28;20095;-79
2022/05/10 04:06:15;;;;;;;21.48;10.82;;;15.90;99.90;;;;;;5028126;28;20041;-79
2022/05/10 04:08:41;;;;;;;22.00;10.57;;;15.90;99.90;;;;;;5012389;28;20026;-79
2022/05/10 04:11:09;;;;;;;26.45;10.80;;;15.80;99.90;;;;;;5014961;28;20041;-79
2022/05/10 04:13:36;;;;;;;22.15;9.90;;;15.90;99.90;;;;;;5018391;28;20029;-79
2022/05/10 04:16:01;;;;;;;21.77;9.93;;;15.90;99.90;;;;;;5021474;28;20036;-79
2022/05/10 04:18:28;;;;;;;23.50;9.70;;;15.90;99.90;;;;;;5036320;28;20026;-79
2022/05/10 04:20:54;;;;;;;22.30;9.30;;;15.90;99.90;;;;;;5033198;28;20115;-78
2022/05/10 04:23:20;;;;;;;19.52;9.90;;;15.90;99.90;;;;;;5046829;28;20022;-78
2022/05/10 04:25:46;;;;;;;21.05;9.63;;;15.90;99.90;;;;;;5046165;28;20030;-79
2022/05/10 04:28:12;;;;;;;20.67;9.48;;;16.00;99.90;;;;;;5043868;28;20030;-78
2022/05/10 04:30:37;;;;;;;21.52;9.07;;;16.00;99.90;;;;;;5037609;28;20029;-77
2022/05/10 04:33:03;;;;;;;17.92;8.90;;;16.00;99.90;;;;;;5039186;28;20176;-77
2022/05/10 04:35:29;;;;;;;21.50;9.38;;;16.10;99.90;;;;;;5024804;28;20034;-77
2022/05/10 04:37:55;;;;;;;17.25;8.80;;;16.10;99.90;;;;;;5014947;28;20033;-77
2022/05/10 04:43:05;;;;;;;19.67;9.68;;;16.20;99.90;;;;;;5031183;28;20527;-76
2022/05/10 04:45:35;;;;;;;22.08;9.25;;;16.30;99.90;;;;;;5026742;28;20034;-77
2022/05/10 04:48:00;;;;;;;22.63;9.15;;;16.40;99.90;;;;;;5022781;28;20135;-77
2022/05/10 04:50:26;;;;;;;21.48;9.27;;;16.40;99.90;;;;;;5036540;28;20089;-77
2022/05/10 04:52:51;;;;;;;22.00;10.10;;;16.50;99.90;;;;;;5025800;28;20018;-77
2022/05/10 04:55:20;;;;;;;18.13;9.60;;;16.50;99.90;;;;;;5018710;28;20022;-77
2022/05/10 04:57:45;;;;;;;24.10;10.32;;;16.50;99.90;;;;;;5017860;28;20026;-77
2022/05/10 05:00:14;;;;;;;21.67;9.77;;;16.60;99.90;;;;;;5028537;28;20036;-77
2022/05/10 05:02:39;;;;;;;21.70;9.48;;;16.60;99.90;;;;;;5042230;28;20030;-77
2022/05/10 05:05:06;;;;;;;28.65;10.98;;;16.60;99.90;;;;;;5034185;28;20093;-78
2022/05/10 05:07:32;;;;;;;23.83;11.05;;;16.70;99.90;;;;;;5014825;28;20084;-77
2022/05/10 05:09:58;;;;;;;25.15;11.35;;;16.80;99.90;;;;;;5015533;28;20037;-77
2022/05/10 05:12:24;;;;;;;21.35;11.50;;;16.80;99.90;;;;;;5027506;28;20025;-77
2022/05/10 05:14:50;;;;;;;26.52;12.13;;;16.80;99.90;;;;;;5029394;28;20037;-79
2022/05/10 05:17:16;;;;;;;24.80;11.63;;;16.90;99.90;;;;;;5016661;28;20018;-78
2022/05/10 05:19:41;;;;;;;31.10;12.25;;;16.90;99.90;;;;;;5029792;28;20032;-78
2022/05/10 05:22:07;;;;;;;24.88;11.65;;;16.90;99.90;;;;;;5033250;28;20123;-79
2022/05/10 05:24:32;;;;;;;28.08;12.60;;;17.00;99.90;;;;;;5036434;28;20030;-78
2022/05/10 05:26:58;;;;;;;26.55;12.23;;;17.00;99.90;;;;;;5034783;28;20033;-78
2022/05/10 05:29:24;;;;;;;27.30;12.15;;;17.00;99.90;;;;;;5036476;28;20034;-78
2022/05/10 05:31:51;;;;;;;29.20;12.38;;;17.00;99.90;;;;;;5036454;28;20084;-78
2022/05/10 05:34:17;;;;;;;26.40;11.80;;;17.00;99.90;;;;;;5044158;28;20017;-78
2022/05/10 05:36:44;;;;;;;27.90;12.70;;;17.10;99.90;;;;;;5028033;28;20034;-77
2022/05/10 05:39:09;;;;;;;25.42;12.40;;;17.10;99.90;;;;;;5033132;28;20032;-77
2022/05/10 05:41:35;;;;;;;29.52;13.35;;;17.10;99.90;;;;;;5022331;28;20097;-77
2022/05/10 05:44:00;;;;;;;33.67;13.20;;;17.10;99.90;;;;;;5021380;28;20028;-78
2022/05/10 05:46:26;;;;;;;27.58;13.52;;;17.10;99.90;;;;;;5025789;28;20026;-77
2022/05/10 05:48:51;;;;;;;31.65;14.02;;;17.20;99.90;;;;;;5033933;28;20033;-78
2022/05/10 05:51:17;;;;;;;34.88;13.60;;;17.20;99.90;;;;;;5040697;28;20033;-78
2022/05/10 05:53:42;;;;;;;29.90;14.20;;;17.20;99.90;;;;;;5038058;28;20101;-78
2022/05/10 05:56:10;;;;;;;32.03;13.88;;;17.30;99.90;;;;;;5019569;28;20030;-78
2022/05/10 05:58:37;;;;;;;28.15;13.38;;;17.30;99.90;;;;;;5022895;28;20102;-78
2022/05/10 06:01:11;;;;;;;29.65;12.80;;;17.30;99.90;;;;;;5018983;28;20046;-78
2022/05/10 06:03:36;;;;;;;28.15;13.35;;;17.40;99.90;;;;;;5020210;28;20033;-78
2022/05/10 06:06:02;;;;;;;27.00;13.05;;;17.40;99.90;;;;;;5031028;28;20088;-78
2022/05/10 06:08:27;;;;;;;28.75;13.32;;;17.40;99.90;;;;;;5014154;28;20018;-77
2022/05/10 06:10:55;;;;;;;30.05;14.13;;;17.50;99.90;;;;;;5014589;28;20056;-77
2022/05/10 06:13:22;;;;;;;33.53;13.85;;;17.50;99.90;;;;;;5015762;28;20113;-77
2022/05/10 06:15:49;;;;;;;30.23;13.68;;;17.60;99.90;;;;;;5028475;28;20017;-78
2022/05/10 06:18:15;;;;;;;26.15;13.07;;;17.60;99.90;;;;;;5017600;28;20041;-77
2022/05/10 06:20:41;;;;;;;25.90;12.88;;;17.70;99.90;;;;;;5015227;28;20045;-77
2022/05/10 06:23:06;;;;;;;28.58;12.95;;;17.70;99.90;;;;;;5014929;28;20022;-78
2022/05/10 06:25:34;;;;;;;27.40;12.52;;;17.80;99.90;;;;;;5015198;28;20235;-78
2022/05/10 06:27:59;;;;;;;28.70;12.48;;;17.80;99.90;;;;;;5024589;28;20034;-77
2022/05/10 06:30:25;;;;;;;25.48;12.73;;;17.90;99.90;;;;;;5036654;28;20035;-79
2022/05/10 06:32:54;;;;;;;27.48;12.35;;;18.00;99.90;;;;;;5039396;28;20041;-79
2022/05/10 06:35:20;;;;;;;28.13;12.85;;;18.00;99.90;;;;;;5044189;28;20120;-76
2022/05/10 06:40:29;;;;;;;25.27;11.73;;;18.10;99.90;;;;;;5031491;28;20048;-78
2022/05/10 06:42:59;;;;;;;27.85;12.30;;;18.10;99.90;;;;;;5039708;28;20022;-79
2022/05/10 06:45:25;;;;;;;30.60;11.98;;;18.20;99.90;;;;;;5038978;28;20536;-79
2022/05/10 06:47:50;;;;;;;27.83;11.57;;;18.30;99.90;;;;;;5022582;28;20030;-78
2022/05/10 06:50:20;;;;;;;24.45;11.00;;;18.30;99.90;;;;;;5027386;28;20381;-81
2022/05/10 06:52:48;;;;;;;25.35;11.23;;;18.40;99.90;;;;;;5045016;28;20029;-79
2022/05/10 06:55:14;;;;;;;23.67;10.63;;;18.50;99.90;;;;;;5040424;28;20164;-79
2022/05/10 06:57:39;;;;;;;23.83;10.75;;;18.50;99.90;;;;;;5047868;28;20022;-80
2022/05/10 07:00:06;;;;;;;23.35;10.35;;;18.60;99.90;;;;;;5048304;28;20040;-80
2022/05/10 07:02:32;;;;;;;21.13;9.73;;;18.70;99.90;;;;;;5048779;28;20025;-79
2022/05/10 07:04:57;;;;;;;23.30;9.93;;;18.80;99.90;;;;;;5041900;28;20061;-79
2022/05/10 07:07:23;;;;;;;20.25;9.93;;;18.80;99.90;;;;;;5044155;28;20040;-79
2022/05/10 07:09:49;;;;;;;23.85;9.77;;;18.90;99.90;;;;;;5042286;28;20052;-79
2022/05/10 07:12:14;;;;;;;18.08;10.32;;;19.00;99.90;;;;;;5039518;28;20025;-79
2022/05/10 07:14:40;;;;;;;24.70;9.70;;;19.00;99.90;;;;;;5034218;28;20036;-79
2022/05/10 07:17:05;;;;;;;21.40;8.85;;;19.00;99.90;;;;;;5025610;28;20100;-79
2022/05/10 07:19:31;;;;;;;23.30;9.27;;;19.10;99.90;;;;;;5031608;28;20058;-79
2022/05/10 07:21:57;;;;;;;17.88;9.07;;;19.10;99.90;;;;;;5035113;28;20448;-80
2022/05/10 07:24:23;;;;;;;18.08;9.70;;;19.20;99.90;;;;;;5048154;28;20025;-78
2022/05/10 07:26:48;;;;;;;18.48;8.90;;;19.20;99.90;;;;;;5047965;28;20042;-79
2022/05/10 07:29:16;;;;;;;19.38;9.00;;;19.20;99.90;;;;;;5035329;28;20053;-78
2022/05/10 07:31:41;;;;;;;18.17;8.50;;;19.30;99.90;;;;;;5044768;28;20034;-77
2022/05/10 07:34:07;;;;;;;16.95;8.45;;;19.40;99.90;;;;;;5038990;28;20030;-76
2022/05/10 07:36:33;;;;;;;16.48;7.35;;;19.50;99.90;;;;;;5022361;28;20030;-77
2022/05/10 07:39:06;;;;;;;16.63;7.05;;;19.60;99.50;;;;;;5038545;28;20131;-76
2022/05/10 07:41:33;;;;;;;18.38;6.78;;;19.70;99.10;;;;;;5040321;28;20031;-77
2022/05/10 07:43:59;;;;;;;13.73;6.13;;;19.80;98.80;;;;;;5032491;28;20022;-79
2022/05/10 07:46:25;;;;;;;12.85;6.82;;;20.00;98.00;;;;;;5039240;28;20102;-77
2022/05/10 07:48:51;;;;;;;13.38;6.10;;;20.10;97.70;;;;;;5036206;28;20052;-79
2022/05/10 07:51:18;;;;;;;14.75;6.20;;;20.20;97.40;;;;;;5034677;28;20037;-77
2022/05/10 07:53:44;;;;;;;13.07;6.20;;;20.40;97.30;;;;;;5047624;28;20053;-77
2022/05/10 07:56:10;;;;;;;14.65;5.80;;;20.50;96.70;;;;;;5046335;28;20056;-77
2022/05/10 07:58:36;;;;;;;12.18;5.30;;;20.60;96.10;;;;;;5054273;28;20025;-79
2022/05/10 08:01:04;;;;;;;10.80;5.03;;;20.70;95.60;;;;;;5047380;28;20081;-78
2022/05/10 08:03:30;;;;;;;11.10;4.82;;;20.80;95.10;;;;;;5035445;28;20034;-79
2022/05/10 08:05:56;;;;;;;13.13;5.68;;;20.90;94.70;;;;;;5029220;28;20039;-77
2022/05/10 08:08:24;;;;;;;14.75;5.53;;;21.00;94.20;;;;;;5028331;28;20026;-78
2022/05/10 08:10:51;;;;;;;14.52;5.55;;;21.10;93.30;;;;;;5034575;28;20040;-80
2022/05/10 08:13:22;;;;;;;16.60;5.63;;;21.20;93.00;;;;;;5037494;28;20017;-78
2022/05/10 08:15:50;;;;;;;18.05;5.63;;;21.40;92.70;;;;;;5033061;28;20038;-79
2022/05/10 08:18:16;;;;;;;13.40;5.43;;;21.40;91.90;;;;;;5030131;28;20022;-78
2022/05/10 08:20:42;;;;;;;13.85;5.40;;;21.50;91.30;;;;;;5028410;28;20049;-78
2022/05/10 08:23:09;;;;;;;8.98;5.22;;;21.50;90.80;;;;;;5053525;28;20477;-79
2022/05/10 08:25:35;;;;;;;11.95;5.20;;;21.60;90.40;;;;;;5042071;28;20052;-78
2022/05/10 08:28:02;;;;;;;14.32;5.50;;;21.60;90.30;;;;;;5044409;28;20025;-79
2022/05/10 08:30:28;;;;;;;16.70;5.72;;;21.60;90.30;;;;;;5040336;28;20040;-79
2022/05/10 08:32:54;;;;;;;12.63;5.28;;;21.60;90.50;;;;;;5024296;28;20030;-78
2022/05/10 08:35:20;;;;;;;11.95;5.38;;;21.60;90.20;;;;;;5023585;28;20030;-79
2022/05/10 08:37:45;;;;;;;15.50;5.80;;;21.60;90.00;;;;;;5023692;28;20138;-79
2022/05/10 08:40:33;;;;;;;12.23;5.72;;;21.50;90.20;;;;;;5040228;28;20025;-79
2022/05/10 08:43:02;;;;;;;10.65;5.38;;;21.50;90.30;;;;;;5038899;28;20040;-79
2022/05/10 08:45:29;;;;;;;15.05;5.63;;;21.50;90.20;;;;;;5024363;28;20030;-78
2022/05/10 08:47:54;;;;;;;12.20;5.80;;;21.60;90.30;;;;;;5025079;28;20053;-79
2022/05/10 08:50:21;;;;;;;14.57;6.03;;;21.60;90.10;;;;;;5032604;28;20022;-79
2022/05/10 08:52:51;;;;;;;12.90;5.88;;;21.70;89.80;;;;;;5028595;28;20025;-78
2022/05/10 08:55:23;;;;;;;13.43;6.30;;;21.70;90.00;;;;;;5031788;28;20038;-78
2022/05/10 08:58:13;;;;;;;13.00;6.38;;;21.60;90.30;;;;;;5050870;28;20029;-78
2022/05/10 09:00:46;;;;;;;12.98;6.60;;;21.60;90.70;;;;;;5041702;28;20053;-77
2022/05/10 09:03:45;;;;;;;14.88;7.10;;;21.60;91.00;;;;;;5053194;28;20077;-78
2022/05/10 09:06:22;;;;;;;15.73;6.50;;;21.60;90.70;;;;;;5052331;28;20013;-78
2022/05/10 09:09:16;;;;;;;13.40;6.50;;;21.70;90.90;;;;;;5045344;28;20089;-77
2022/05/10 09:11:51;;;;;;;12.45;6.55;;;21.70;91.20;;;;;;5032308;28;20033;-78
2022/05/10 09:14:33;;;;;;;13.43;6.25;;;21.80;91.00;;;;;;5032687;28;20040;-77
2022/05/10 09:17:01;;;;;;;10.38;6.97;;;21.70;90.50;;;;;;5047993;28;20041;-78
2022/05/10 09:19:42;;;;;;;14.43;7.47;;;21.70;90.60;;;;;;5050964;28;20032;-78
2022/05/10 09:22:33;;;;;;;17.08;6.90;;;21.70;90.70;;;;;;5038155;28;20061;-79
2022/05/10 09:24:59;;;;;;;11.63;6.97;;;21.60;90.90;;;;;;5034860;28;20084;-79
2022/05/10 09:27:31;;;;;;;15.15;7.10;;;21.60;90.90;;;;;;5053006;28;20009;-79
2022/05/10 09:29:57;;;;;;;11.50;7.25;;;21.60;91.30;;;;;;5051292;28;20061;-78
2022/05/10 09:35:21;;;;;;;19.38;6.68;;;21.70;91.30;;;;;;5032082;28;20085;-77
2022/05/10 09:37:59;;;;;;;13.90;7.57;;;21.70;91.00;;;;;;5032162;28;20250;-79
2022/05/10 09:40:40;;;;;;;17.80;7.45;;;21.80;90.50;;;;;;5029144;28;20026;-79
2022/05/10 09:43:15;;;;;;;13.77;7.15;;;21.70;90.10;;;;;;5049750;28;20085;-78
2022/05/10 09:45:41;;;;;;;12.10;7.23;;;21.70;90.00;;;;;;5048865;28;20038;-78
2022/05/10 09:48:18;;;;;;;16.65;7.65;;;21.70;89.80;;;;;;5039257;28;20048;-78
2022/05/10 09:50:46;;;;;;;16.95;7.53;;;21.80;89.50;;;;;;5047848;28;20028;-78
2022/05/10 09:53:15;;;;;;;15.20;6.70;;;21.80;89.70;;;;;;5047705;28;20033;-78
2022/05/10 09:55:53;;;;;;;14.60;6.68;;;21.90;89.50;;;;;;5050836;28;20021;-78
2022/05/10 09:58:26;;;;;;;14.55;7.32;;;22.00;89.90;;;;;;5050583;28;20065;-78
2022/05/10 10:00:52;;;;;;;17.17;7.40;;;22.20;89.70;;;;;;5044399;28;20268;-78
2022/05/10 10:03:38;;;;;;;11.32;7.32;;;22.20;89.20;;;;;;5048969;28;20049;-78
2022/05/10 10:06:25;;;;;;;15.13;6.68;;;22.10;89.90;;;;;;5048950;28;20038;-80
2022/05/10 10:08:53;;;;;;;15.93;6.85;;;22.00;89.50;;;;;;5046312;28;20100;-77
2022/05/10 10:11:21;;;;;;;13.35;6.95;;;22.00;90.10;;;;;;5037699;28;20093;-78
2022/05/10 10:13:55;;;;;;;13.88;6.95;;;22.00;89.60;;;;;;5034730;28;20018;-77
2022/05/10 10:16:27;;;;;;;16.60;6.80;;;22.10;89.20;;;;;;5056994;28;20095;-77
2022/05/10 10:18:58;;;;;;;13.85;6.10;;;22.20;88.60;;;;;;5056565;28;20025;-77
2022/05/10 10:22:05;;;;;;;13.80;6.00;;;22.20;88.40;;;;;;5048948;28;20053;-78
2022/05/10 10:24:38;;;;;;;24.58;6.03;;;22.40;86.30;;;;;;5054454;28;20037;-78
2022/05/10 10:27:17;;;;;;;15.75;5.68;;;22.40;86.20;;;;;;5054914;28;20033;-77
2022/05/10 10:30:02;;;;;;;18.77;6.50;;;22.60;85.80;;;;;;5051921;28;20028;-78
2022/05/10 10:32:48;;;;;;;11.43;6.03;;;22.80;84.20;;;;;;5041945;28;20029;-77
2022/05/10 10:35:23;;;;;;;20.25;7.00;;;22.90;83.40;;;;;;5048532;28;20045;-77
2022/05/10 10:37:57;;;;;;;16.20;6.30;;;22.90;83.20;;;;;;5044708;28;20036;-78
2022/05/10 10:40:36;;;;;;;16.83;6.55;;;23.00;83.60;;;;;;5030452;28;20037;-77
2022/05/10 10:43:16;;;;;;;18.48;6.40;;;23.10;82.40;;;;;;5026957;28;20030;-77
2022/05/10 10:46:09;;;;;;;19.45;6.55;;;23.10;80.70;;;;;;5027674;28;20034;-78
2022/05/10 10:48:49;;;;;;;15.65;5.80;;;23.10;79.90;;;;;;5030533;28;20021;-77
2022/05/10 10:51:16;;;;;;;15.40;5.40;;;23.00;79.20;;;;;;5051496;28;20034;-77
2022/05/10 10:53:44;;;;;;;11.45;4.70;;;23.10;77.30;;;;;;5049883;28;20021;-77
2022/05/10 10:56:36;;;;;;;9.55;4.07;;;23.10;76.40;;;;;;5045278;28;20044;-77
2022/05/10 10:59:19;;;;;;;22.98;4.25;;;23.10;75.00;;;;;;5026118;28;20021;-77
2022/05/10 11:02:16;;;;;;;11.85;4.78;;;23.20;74.30;;;;;;5029559;28;20040;-77
2022/05/10 11:05:19;;;;;;;12.23;4.78;;;23.20;73.20;;;;;;5008565;28;20101;-77
2022/05/10 11:08:08;;;;;;;16.90;6.45;;;23.10;73.30;;;;;;5003162;28;20038;-77
2022/05/10 11:10:46;;;;;;;10.50;6.50;;;23.00;74.30;;;;;;4995528;28;20534;-77
2022/05/10 11:13:31;;;;;;;14.85;6.38;;;22.70;74.60;;;;;;5006848;28;20111;-77
2022/05/10 11:16:20;;;;;;;27.55;7.68;;;22.60;75.50;;;;;;5006982;28;20082;-78
2022/05/10 11:19:23;;;;;;;14.13;5.63;;;22.40;75.60;;;;;;5024843;28;20014;-78
2022/05/10 11:22:12;;;;;;;13.45;6.25;;;22.40;75.90;;;;;;5033385;28;20050;-77
2022/05/10 11:25:10;;;;;;;12.13;5.68;;;22.30;76.10;;;;;;5033725;28;20193;-79
2022/05/10 11:28:13;;;;;;;12.55;5.60;;;22.30;76.50;;;;;;5036906;28;20029;-77
2022/05/10 11:31:09;;;;;;;10.88;4.90;;;22.40;76.10;;;;;;5032062;28;20065;-78
2022/05/10 11:33:58;;;;;;;17.65;4.85;;;22.50;74.80;;;;;;5020455;28;20053;-77
2022/05/10 11:36:33;;;;;;;12.02;4.72;;;22.60;73.90;;;;;;5034049;28;20136;-77
2022/05/10 11:39:30;;;;;;;14.82;4.80;;;22.50;73.10;;;;;;5031144;28;20026;-77
2022/05/10 11:42:25;;;;;;;11.05;4.68;;;22.50;72.30;;;;;;5035354;28;20057;-77
2022/05/10 11:45:06;;;;;;;15.87;4.87;;;22.30;71.70;;;;;;5053062;28;20026;-77
2022/05/10 11:48:10;;;;;;;13.15;4.60;;;22.30;72.40;;;;;;5055344;28;20323;-77
2022/05/10 11:53:50;;;;;;;8.27;4.45;;;22.40;71.90;;;;;;5036531;28;20036;-77
2022/05/10 11:56:17;;;;;;;14.23;4.20;;;22.40;70.40;;;;;;5052756;28;20024;-78
2022/05/10 11:58:44;;;;;;;10.32;3.78;;;22.40;70.30;;;;;;5033631;28;20034;-78
2022/05/10 12:01:40;;;;;;;7.95;3.67;;;22.40;70.00;;;;;;5033800;28;20025;-77
2022/05/10 12:04:07;;;;;;;11.38;4.00;;;22.40;69.10;;;;;;5033573;28;20045;-78
2022/05/10 12:06:35;;;;;;;13.05;3.88;;;22.20;69.20;;;;;;5037872;28;20025;-78
2022/05/10 12:09:07;;;;;;;10.90;3.88;;;22.10;69.40;;;;;;5052324;28;20044;-78
2022/05/10 12:11:32;;;;;;;12.30;3.88;;;22.10;69.80;;;;;;5056087;28;20168;-78
2022/05/10 12:22:52;;;;;;;6.28;2.83;;;22.00;67.00;;;;;;5055746;28;20048;-77
2022/05/10 12:25:55;;;;;;;8.93;3.20;;;21.90;64.90;;;;;;5037996;28;20045;-77
2022/05/10 12:28:47;;;;;;;13.18;3.13;;;21.80;64.50;;;;;;5036146;28;20033;-78
2022/05/10 12:31:45;;;;;;;16.30;2.90;;;21.90;65.40;;;;;;5031109;28;20030;-80
2022/05/10 12:34:31;;;;;;;9.05;2.95;;;22.00;64.30;;;;;;5020859;28;20077;-77
2022/05/10 12:37:16;;;;;;;;;;;21.90;64.70;;;;;;5018349;28;20025;-78
2022/05/10 12:39:43;;;;;;;18.83;2.90;;;21.90;63.10;;;;;;5018675;28;19912;-78
2022/05/10 12:42:16;;;;;;;15.90;2.55;;;21.70;61.30;;;;;;5017602;28;20121;-78
2022/05/10 12:45:03;;;;;;;17.55;2.50;;;21.70;61.10;;;;;;5022629;28;20018;-79
2022/05/10 12:47:52;;;;;;;12.07;2.20;;;21.60;59.70;;;;;;5024555;28;20068;-79
2022/05/10 12:50:39;;;;;;;11.73;2.88;;;21.50;59.80;;;;;;5027111;28;20045;-78
2022/05/10 12:53:23;;;;;;;13.65;2.75;;;21.50;60.40;;;;;;5026810;28;20028;-78
2022/05/10 12:55:51;;;;;;;7.00;1.90;;;21.40;60.20;;;;;;5025747;28;20028;-80
2022/05/10 12:58:24;;;;;;;5.90;2.10;;;21.30;59.40;;;;;;5025360;28;20108;-79
2022/05/10 13:00:57;;;;;;;6.65;2.03;;;21.30;59.60;;;;;;5023144;28;20030;-79
2022/05/10 13:03:37;;;;;;;6.40;1.90;;;21.30;59.20;;;;;;5025666;28;20087;-78
2022/05/10 13:06:33;;;;;;;3.70;1.80;;;21.40;59.20;;;;;;5018780;28;20389;-78
2022/05/10 13:09:07;;;;;;;6.30;1.90;;;21.40;59.10;;;;;;5023390;28;20032;-77
2022/05/10 13:11:44;;;;;;;10.80;2.03;;;21.40;58.90;;;;;;5018215;28;20038;-78
2022/05/10 13:14:11;;;;;;;5.60;1.85;;;21.40;59.30;;;;;;5023427;28;20037;-78
2022/05/10 13:16:44;;;;;;;7.13;1.70;;;21.40;59.40;;;;;;5027913;28;20037;-79
2022/05/10 13:19:10;;;;;;;9.15;2.20;;;21.30;59.30;;;;;;5019021;28;20371;-78
2022/05/10 13:21:35;;;;;;;7.55;1.52;;;21.40;59.80;;;;;;5021056;28;20077;-78
2022/05/10 13:24:13;;;;;;;5.43;1.70;;;21.40;60.10;;;;;;5015425;28;20029;-78
2022/05/10 13:26:53;;;;;;;7.57;1.65;;;21.50;60.40;;;;;;5027555;28;20056;-78
2022/05/10 13:29:19;;;;;;;7.57;1.73;;;21.60;60.80;;;;;;5021715;28;20018;-78